Time;durP1;ratioP1;P1;durP2;ratioP2;P2;SDS_P1;SDS_P2;PMS_P1;PMS_P2;Temp;Humidity;BMP_temperature;BMP_pressure;BME280_temperature;BME280_humidity;BME280_pressure;Samples;Min_cycle;Max_cycle;Signal;HPM_P1;HPM_P2
2022/11/22 00:02:18;;;;;;;17.97;12.20;;;;;;;;;;5100094;28;20473;-70
2022/11/22 00:05:13;;;;;;;18.40;12.40;;;;;;;;;;5100902;28;20476;-70
2022/11/22 00:08:03;;;;;;;17.70;12.40;;;;;;;;;;5099804;28;20491;-70
2022/11/22 00:10:53;;;;;;;19.30;12.97;;;;;;;;;;5097366;28;20479;-70
2022/11/22 00:13:52;;;;;;;18.07;12.20;;;;;;;;;;5099238;28;20459;-70
2022/11/22 00:16:44;;;;;;;21.97;13.90;;;;;;;;;;5095510;28;20480;-70
2022/11/22 00:19:38;;;;;;;20.27;13.77;;;;;;;;;;5098674;28;20453;-70
2022/11/22 00:22:29;;;;;;;19.10;12.63;;;;;;;;;;5101219;28;20585;-70
2022/11/22 00:25:19;;;;;;;19.00;13.50;;;;;;;;;;5100491;28;20446;-71
2022/11/22 00:28:08;;;;;;;19.30;13.90;;;;;;;;;;5083512;28;20459;-71
2022/11/22 00:31:08;;;;;;;;;;;;;;;;;;;;;
2022/11/22 00:33:58;;;;;;;21.20;14.03;;;;;;;;;;5077301;28;20562;-71
2022/11/22 00:36:47;;;;;;;19.40;14.50;;;;;;;;;;5087499;28;20643;-71
2022/11/22 00:39:40;;;;;;;18.33;13.77;;;;;;;;;;5090562;28;20510;-70
2022/11/22 00:42:42;;;;;;;20.87;14.00;;;;;;;;;;5080289;28;20484;-71
2022/11/22 00:45:53;;;;;;;22.50;14.07;;;;;;;;;;5074900;28;20456;-70
2022/11/22 00:48:42;;;;;;;18.90;13.70;;;;;;;;;;5078264;28;20898;-70
2022/11/22 00:51:35;;;;;;;19.73;13.90;;;;;;;;;;5079393;28;20479;-71
2022/11/22 00:54:25;;;;;;;25.23;16.33;;;;;;;;;;5079305;28;20453;-71
2022/11/22 00:57:17;;;;;;;18.93;14.40;;;;;;;;;;5080079;28;20464;-70
2022/11/22 01:00:09;;;;;;;22.67;14.87;;;;;;;;;;5074272;28;20839;-70
2022/11/22 01:02:57;;;;;;;22.70;15.00;;;;;;;;;;5073553;28;20482;-70
2022/11/22 01:05:46;;;;;;;22.00;14.30;;;;;;;;;;5078392;28;20457;-70
2022/11/22 01:08:35;;;;;;;21.13;14.30;;;;;;;;;;5079629;28;20465;-70
2022/11/22 01:11:24;;;;;;;21.93;14.20;;;;;;;;;;5074215;28;20475;-71
2022/11/22 01:14:16;;;;;;;22.17;14.57;;;;;;;;;;5076739;28;20464;-71
2022/11/22 01:17:05;;;;;;;22.33;14.43;;;;;;;;;;5076463;28;20472;-71
2022/11/22 01:19:55;;;;;;;23.90;14.70;;;;;;;;;;5077955;28;20982;-71
2022/11/22 01:22:43;;;;;;;21.30;14.03;;;;;;;;;;5077735;28;21052;-71
2022/11/22 01:25:33;;;;;;;20.33;14.43;;;;;;;;;;5075725;28;20461;-71
2022/11/22 01:28:22;;;;;;;23.60;14.60;;;;;;;;;;5069759;28;20460;-71
2022/11/22 01:31:20;;;;;;;24.17;14.40;;;;;;;;;;5074972;28;20474;-71
2022/11/22 01:34:08;;;;;;;25.90;15.57;;;;;;;;;;5072131;28;20467;-70
2022/11/22 01:37:05;;;;;;;23.23;16.03;;;;;;;;;;5077167;28;20476;-70
2022/11/22 01:39:55;;;;;;;23.20;14.50;;;;;;;;;;5077127;28;20460;-70
2022/11/22 01:42:48;;;;;;;22.57;14.60;;;;;;;;;;5079177;28;20485;-71
2022/11/22 01:45:45;;;;;;;22.57;15.40;;;;;;;;;;5073383;28;20455;-70
2022/11/22 01:48:44;;;;;;;21.97;16.47;;;;;;;;;;5071900;28;20456;-71
2022/11/22 01:51:36;;;;;;;23.57;15.80;;;;;;;;;;5070961;28;20477;-71
2022/11/22 01:54:35;;;;;;;22.60;15.27;;;;;;;;;;5075528;28;20468;-71
2022/11/22 01:57:26;;;;;;;20.80;14.53;;;;;;;;;;5077385;28;20471;-71
2022/11/22 02:00:19;;;;;;;24.33;15.40;;;;;;;;;;5072179;28;20452;-71
2022/11/22 02:03:12;;;;;;;25.33;15.53;;;;;;;;;;5070367;28;20512;-70
2022/11/22 02:06:14;;;;;;;24.10;15.63;;;;;;;;;;5077453;28;20452;-70
2022/11/22 02:09:04;;;;;;;23.67;15.57;;;;;;;;;;5077856;28;20447;-71
2022/11/22 02:11:54;;;;;;;22.17;15.27;;;;;;;;;;5076546;28;20484;-70
2022/11/22 02:14:43;;;;;;;24.20;14.50;;;;;;;;;;5076644;28;20824;-71
2022/11/22 02:17:33;;;;;;;25.87;15.57;;;;;;;;;;5077237;28;20484;-71
2022/11/22 02:20:24;;;;;;;22.10;15.03;;;;;;;;;;5072895;28;20447;-71
2022/11/22 02:23:26;;;;;;;22.30;16.37;;;;;;;;;;5077561;28;20517;-71
2022/11/22 02:26:22;;;;;;;24.00;15.90;;;;;;;;;;5071954;28;20462;-71
2022/11/22 02:29:14;;;;;;;22.80;15.10;;;;;;;;;;5076143;28;20991;-71
2022/11/22 02:32:13;;;;;;;24.37;16.37;;;;;;;;;;5088082;28;20470;-70
2022/11/22 02:35:03;;;;;;;25.43;16.60;;;;;;;;;;5083409;28;20452;-70
2022/11/22 02:37:59;;;;;;;24.40;16.30;;;;;;;;;;5078175;28;20485;-71
2022/11/22 02:40:57;;;;;;;23.83;14.60;;;;;;;;;;5078455;28;20471;-71
2022/11/22 02:43:49;;;;;;;24.43;14.93;;;;;;;;;;5078053;28;20453;-71
2022/11/22 02:46:46;;;;;;;24.97;15.53;;;;;;;;;;5079122;28;20527;-71
2022/11/22 02:49:34;;;;;;;24.93;16.93;;;;;;;;;;5077032;28;20462;-71
2022/11/22 02:52:24;;;;;;;23.70;15.97;;;;;;;;;;5079905;28;20822;-71
2022/11/22 02:55:14;;;;;;;22.70;15.53;;;;;;;;;;5078794;28;20521;-71
2022/11/22 02:58:11;;;;;;;23.30;15.50;;;;;;;;;;5078282;28;20539;-71
2022/11/22 03:01:05;;;;;;;25.07;15.90;;;;;;;;;;5077657;28;20471;-71
2022/11/22 03:03:54;;;;;;;24.70;16.60;;;;;;;;;;5086248;28;20459;-70
2022/11/22 03:06:44;;;;;;;22.10;14.10;;;;;;;;;;5106208;28;20457;-71
2022/11/22 03:09:33;;;;;;;25.20;16.40;;;;;;;;;;5097429;28;20456;-70
2022/11/22 03:12:31;;;;;;;24.33;15.50;;;;;;;;;;5079526;28;20494;-71
2022/11/22 03:15:27;;;;;;;23.90;15.50;;;;;;;;;;5078374;28;20980;-71
2022/11/22 03:18:24;;;;;;;25.00;16.30;;;;;;;;;;5082237;28;20487;-71
2022/11/22 03:21:16;;;;;;;23.63;15.60;;;;;;;;;;5081894;28;20468;-71
2022/11/22 03:24:07;;;;;;;25.20;15.90;;;;;;;;;;5085517;28;20460;-71
2022/11/22 03:26:58;;;;;;;24.60;15.97;;;;;;;;;;5086241;28;20451;-70
2022/11/22 03:29:50;;;;;;;22.23;14.00;;;;;;;;;;5082914;28;20446;-72
2022/11/22 03:32:45;;;;;;;23.07;14.97;;;;;;;;;;5086223;28;20497;-71
2022/11/22 03:35:41;;;;;;;22.50;15.33;;;;;;;;;;5081944;28;20450;-71
2022/11/22 03:38:35;;;;;;;20.80;13.90;;;;;;;;;;5082341;28;20484;-71
2022/11/22 03:41:27;;;;;;;22.20;14.77;;;;;;;;;;5080132;28;20479;-71
2022/11/22 03:44:30;;;;;;;20.90;14.73;;;;;;;;;;5080189;28;20958;-71
2022/11/22 03:47:22;;;;;;;24.47;15.40;;;;;;;;;;5078766;28;20434;-70
2022/11/22 03:50:10;;;;;;;24.07;15.47;;;;;;;;;;5078470;28;20459;-70
2022/11/22 03:53:00;;;;;;;23.90;15.50;;;;;;;;;;5078875;28;20485;-70
2022/11/22 03:55:54;;;;;;;22.70;14.90;;;;;;;;;;5079531;28;20445;-70
2022/11/22 03:58:43;;;;;;;23.40;15.63;;;;;;;;;;5075057;28;21079;-70
2022/11/22 04:01:31;;;;;;;22.40;14.50;;;;;;;;;;5080482;28;20473;-70
2022/11/22 04:04:20;;;;;;;22.70;15.50;;;;;;;;;;5081138;28;20937;-71
2022/11/22 04:07:09;;;;;;;22.57;15.50;;;;;;;;;;5079942;28;20546;-70
2022/11/22 04:09:59;;;;;;;24.40;15.23;;;;;;;;;;5081499;28;20488;-71
2022/11/22 04:12:59;;;;;;;21.23;13.47;;;;;;;;;;5078601;28;20497;-70
2022/11/22 04:15:51;;;;;;;21.23;14.50;;;;;;;;;;5075299;28;20664;-70
2022/11/22 04:18:46;;;;;;;23.13;15.60;;;;;;;;;;5078525;28;20507;-70
2022/11/22 04:21:33;;;;;;;23.27;15.70;;;;;;;;;;5080643;28;20816;-70
2022/11/22 04:27:32;;;;;;;23.70;14.23;;;;;;;;;;5077261;28;20824;-70
2022/11/22 04:32:44;;;;;;;22.50;14.90;;;;;;;;;;5076632;28;20453;-70
2022/11/22 04:33:32;;;;;;;23.30;15.03;;;;;;;;;;5080241;28;20481;-70
2022/11/22 04:36:20;;;;;;;24.17;15.43;;;;;;;;;;5077739;28;20447;-71
2022/11/22 04:39:15;;;;;;;22.57;15.60;;;;;;;;;;5075756;28;20454;-71
2022/11/22 04:45:19;;;;;;;24.73;15.70;;;;;;;;;;5075133;28;20460;-70
2022/11/22 04:48:09;;;;;;;23.50;16.43;;;;;;;;;;5078744;28;20511;-71
2022/11/22 04:54:05;;;;;;;24.30;16.63;;;;;;;;;;5072519;28;21365;-71
2022/11/22 04:56:55;;;;;;;22.43;15.77;;;;;;;;;;5078724;28;20475;-70
2022/11/22 04:59:50;;;;;;;25.00;15.70;;;;;;;;;;5079363;28;20465;-70
2022/11/22 05:02:40;;;;;;;23.57;15.57;;;;;;;;;;5078260;28;20485;-70
2022/11/22 05:05:30;;;;;;;25.47;15.93;;;;;;;;;;5079469;28;20912;-70
2022/11/22 05:08:23;;;;;;;28.07;16.77;;;;;;;;;;5076767;28;20492;-70
2022/11/22 05:11:13;;;;;;;25.43;17.37;;;;;;;;;;5078206;28;20473;-71
2022/11/22 05:14:03;;;;;;;25.13;16.73;;;;;;;;;;5074365;28;20461;-71
2022/11/22 05:16:57;;;;;;;23.43;16.50;;;;;;;;;;5078556;28;20451;-71
2022/11/22 05:19:47;;;;;;;24.57;15.73;;;;;;;;;;5075560;28;20454;-71
2022/11/22 05:25:48;;;;;;;27.33;16.80;;;;;;;;;;5078667;28;20461;-71
2022/11/22 05:28:40;;;;;;;23.87;17.10;;;;;;;;;;5074122;28;20461;-71
2022/11/22 05:31:28;;;;;;;25.27;16.00;;;;;;;;;;5074215;28;20474;-71
2022/11/22 05:34:17;;;;;;;21.87;15.17;;;;;;;;;;5075259;28;20450;-71
2022/11/22 05:37:11;;;;;;;23.47;15.77;;;;;;;;;;5069023;28;20465;-71
2022/11/22 05:40:00;;;;;;;23.97;16.77;;;;;;;;;;5072698;28;20457;-71
2022/11/22 05:42:50;;;;;;;24.47;16.40;;;;;;;;;;5075801;28;21533;-70
2022/11/22 05:45:40;;;;;;;25.90;16.43;;;;;;;;;;5073466;28;20995;-71
2022/11/22 05:48:36;;;;;;;24.00;16.33;;;;;;;;;;5076043;28;20543;-70
2022/11/22 05:51:28;;;;;;;24.17;17.20;;;;;;;;;;5079291;28;20472;-71
2022/11/22 05:54:23;;;;;;;23.80;16.53;;;;;;;;;;5069715;28;20459;-70
2022/11/22 05:57:12;;;;;;;25.63;16.77;;;;;;;;;;5077407;28;20448;-70
2022/11/22 06:00:01;;;;;;;26.40;16.70;;;;;;;;;;5076123;28;20808;-70
2022/11/22 06:02:52;;;;;;;24.60;16.23;;;;;;;;;;5075186;28;20979;-70
2022/11/22 06:05:40;;;;;;;24.43;17.00;;;;;;;;;;5073638;28;20447;-70
2022/11/22 06:08:29;;;;;;;23.10;16.50;;;;;;;;;;5073556;28;20980;-71
2022/11/22 06:11:23;;;;;;;23.33;17.20;;;;;;;;;;5076326;28;20484;-71
2022/11/22 06:14:12;;;;;;;24.83;16.50;;;;;;;;;;5091364;28;20448;-71
2022/11/22 06:17:00;;;;;;;23.67;16.90;;;;;;;;;;5078087;28;20446;-71
2022/11/22 06:19:59;;;;;;;27.93;17.93;;;;;;;;;;5077054;28;21288;-71
2022/11/22 06:22:54;;;;;;;27.27;17.67;;;;;;;;;;5069313;28;20566;-71
2022/11/22 06:25:42;;;;;;;25.50;16.53;;;;;;;;;;5074040;28;20449;-71
2022/11/22 06:28:48;;;;;;;23.00;16.33;;;;;;;;;;5075076;28;20446;-71
2022/11/22 06:31:37;;;;;;;22.80;16.43;;;;;;;;;;5074385;28;20487;-71
2022/11/22 06:34:26;;;;;;;24.67;17.77;;;;;;;;;;5074352;28;20457;-72
2022/11/22 06:37:15;;;;;;;25.50;17.00;;;;;;;;;;5075844;28;20459;-71
2022/11/22 06:40:06;;;;;;;27.70;18.10;;;;;;;;;;5077541;28;20456;-73
2022/11/22 06:42:59;;;;;;;25.00;17.10;;;;;;;;;;5073370;28;20495;-71
2022/11/22 06:45:49;;;;;;;26.40;17.40;;;;;;;;;;5078241;28;20467;-71
2022/11/22 06:48:43;;;;;;;26.50;18.17;;;;;;;;;;5071161;28;20457;-71
2022/11/22 06:51:37;;;;;;;23.37;17.53;;;;;;;;;;5076323;28;20990;-71
2022/11/22 06:54:30;;;;;;;30.47;19.87;;;;;;;;;;5077895;28;20531;-72
2022/11/22 06:57:29;;;;;;;26.93;17.90;;;;;;;;;;5076272;28;20485;-71
2022/11/22 07:00:20;;;;;;;27.10;18.13;;;;;;;;;;5078762;28;20800;-72
2022/11/22 07:03:12;;;;;;;28.57;18.80;;;;;;;;;;5079145;28;20874;-71
2022/11/22 07:06:02;;;;;;;28.60;18.83;;;;;;;;;;5075618;28;20450;-72
2022/11/22 07:08:51;;;;;;;26.60;19.10;;;;;;;;;;5077735;28;20509;-72
2022/11/22 07:11:44;;;;;;;26.37;17.67;;;;;;;;;;5076300;28;20475;-72
2022/11/22 07:14:39;;;;;;;30.33;17.97;;;;;;;;;;5078887;28;20454;-71
2022/11/22 07:17:30;;;;;;;28.50;18.50;;;;;;;;;;5078825;28;20857;-72
2022/11/22 07:20:32;;;;;;;24.33;17.83;;;;;;;;;;5083260;28;20487;-71
2022/11/22 07:23:25;;;;;;;28.27;17.90;;;;;;;;;;5082636;28;20999;-71
2022/11/22 07:26:14;;;;;;;29.93;19.40;;;;;;;;;;5081612;28;20437;-71
2022/11/22 07:29:03;;;;;;;28.93;18.87;;;;;;;;;;5082341;28;20927;-71
2022/11/22 07:31:56;;;;;;;27.13;18.13;;;;;;;;;;5080779;28;20484;-71
2022/11/22 07:34:45;;;;;;;27.77;18.60;;;;;;;;;;5081833;28;20836;-71
2022/11/22 07:37:37;;;;;;;25.33;17.53;;;;;;;;;;5079410;28;20857;-72
2022/11/22 07:40:41;;;;;;;26.40;17.60;;;;;;;;;;5083580;28;20941;-71
2022/11/22 07:43:30;;;;;;;28.17;18.87;;;;;;;;;;5079779;28;20481;-71
2022/11/22 07:46:29;;;;;;;27.47;18.63;;;;;;;;;;5082124;28;20454;-71
2022/11/22 07:49:20;;;;;;;26.83;18.37;;;;;;;;;;5081490;28;20438;-71
2022/11/22 07:52:09;;;;;;;27.23;19.20;;;;;;;;;;5080063;28;20490;-71
2022/11/22 07:54:59;;;;;;;24.30;18.57;;;;;;;;;;5082788;28;20453;-72
2022/11/22 07:57:49;;;;;;;26.57;18.10;;;;;;;;;;5080807;28;20453;-72
2022/11/22 08:00:43;;;;;;;27.00;18.37;;;;;;;;;;5083221;28;20477;-72
2022/11/22 08:03:31;;;;;;;24.70;16.57;;;;;;;;;;5093398;28;20844;-72
2022/11/22 08:06:20;;;;;;;29.30;19.37;;;;;;;;;;5106058;28;20461;-72
2022/11/22 08:09:16;;;;;;;27.50;18.67;;;;;;;;;;5101096;28;20460;-72
2022/11/22 08:12:10;;;;;;;25.20;17.63;;;;;;;;;;5086411;28;20472;-73
2022/11/22 08:15:04;;;;;;;27.73;18.70;;;;;;;;;;5084667;28;20464;-72
2022/11/22 08:17:53;;;;;;;26.97;17.83;;;;;;;;;;5082949;28;20452;-71
2022/11/22 08:20:46;;;;;;;26.40;18.50;;;;;;;;;;5082307;28;20467;-72
2022/11/22 08:23:40;;;;;;;28.43;19.20;;;;;;;;;;5081883;28;20490;-71
2022/11/22 08:26:29;;;;;;;27.23;18.53;;;;;;;;;;5075960;28;20448;-72
2022/11/22 08:29:21;;;;;;;25.50;18.20;;;;;;;;;;5082809;28;20460;-72
2022/11/22 08:32:09;;;;;;;26.90;19.33;;;;;;;;;;5082128;28;20837;-72
2022/11/22 08:35:00;;;;;;;26.20;18.17;;;;;;;;;;5082144;28;20935;-72
2022/11/22 08:37:54;;;;;;;26.80;18.23;;;;;;;;;;5079378;28;20459;-72
2022/11/22 08:40:45;;;;;;;26.97;18.90;;;;;;;;;;5080472;28;20684;-72
2022/11/22 08:43:34;;;;;;;26.27;18.10;;;;;;;;;;5079897;28;20478;-72
2022/11/22 08:46:30;;;;;;;24.77;19.57;;;;;;;;;;5080392;28;20482;-71
2022/11/22 08:49:22;;;;;;;25.50;18.87;;;;;;;;;;5074562;28;20468;-72
2022/11/22 08:52:11;;;;;;;28.77;19.50;;;;;;;;;;5080463;28;20481;-72
2022/11/22 08:55:02;;;;;;;25.57;18.60;;;;;;;;;;5081577;28;20455;-71
2022/11/22 08:57:59;;;;;;;27.17;18.10;;;;;;;;;;5078745;28;20478;-72
2022/11/22 09:00:50;;;;;;;27.00;18.37;;;;;;;;;;5080596;28;20468;-71
2022/11/22 09:03:57;;;;;;;29.13;18.23;;;;;;;;;;5080228;28;20822;-72
2022/11/22 09:07:00;;;;;;;26.47;18.30;;;;;;;;;;5080421;28;20451;-72
2022/11/22 09:10:12;;;;;;;28.33;19.27;;;;;;;;;;5082161;28;21035;-71
2022/11/22 09:13:03;;;;;;;23.93;16.13;;;;;;;;;;5077105;28;20493;-71
2022/11/22 09:15:52;;;;;;;25.80;17.27;;;;;;;;;;5076621;28;20453;-71
2022/11/22 09:18:42;;;;;;;26.33;18.37;;;;;;;;;;5082049;28;20442;-71
2022/11/22 09:21:31;;;;;;;25.63;18.37;;;;;;;;;;5079446;28;20470;-72
2022/11/22 09:24:21;;;;;;;25.77;18.13;;;;;;;;;;5080930;28;20466;-71
2022/11/22 09:27:19;;;;;;;27.47;18.07;;;;;;;;;;5080816;28;20498;-71
2022/11/22 09:30:09;;;;;;;27.00;17.73;;;;;;;;;;5079511;28;20447;-72
2022/11/22 09:33:03;;;;;;;24.80;17.53;;;;;;;;;;5080319;28;20480;-72
2022/11/22 09:36:01;;;;;;;24.60;17.33;;;;;;;;;;5081600;28;20454;-71
2022/11/22 09:38:53;;;;;;;27.77;17.00;;;;;;;;;;5079662;28;20548;-72
2022/11/22 09:42:09;;;;;;;28.23;19.23;;;;;;;;;;5076441;28;20484;-71
2022/11/22 09:45:11;;;;;;;27.30;18.67;;;;;;;;;;5078992;28;20468;-71
2022/11/22 09:48:06;;;;;;;28.03;18.00;;;;;;;;;;5079762;28;20446;-72
2022/11/22 09:51:03;;;;;;;26.03;17.00;;;;;;;;;;5079191;28;20487;-71
2022/11/22 09:53:55;;;;;;;24.27;17.50;;;;;;;;;;5081261;28;20447;-72
2022/11/22 09:56:46;;;;;;;27.23;18.80;;;;;;;;;;5079258;28;20445;-71
2022/11/22 09:59:39;;;;;;;26.73;18.30;;;;;;;;;;5079014;28;21034;-72
2022/11/22 10:02:30;;;;;;;27.00;18.70;;;;;;;;;;5079061;28;20469;-72
2022/11/22 10:05:41;;;;;;;26.03;17.40;;;;;;;;;;5080849;28;20453;-72
2022/11/22 10:08:39;;;;;;;26.20;18.30;;;;;;;;;;5080176;28;20547;-72
2022/11/22 10:11:35;;;;;;;28.30;18.77;;;;;;;;;;5076897;28;20468;-71
2022/11/22 10:14:36;;;;;;;26.37;18.10;;;;;;;;;;5080624;28;20456;-72
2022/11/22 10:17:31;;;;;;;26.77;17.30;;;;;;;;;;5078401;28;20445;-71
2022/11/22 10:20:20;;;;;;;28.10;18.10;;;;;;;;;;5078708;28;20481;-72
2022/11/22 10:23:15;;;;;;;28.13;17.77;;;;;;;;;;5080332;28;20826;-71
2022/11/22 10:26:08;;;;;;;25.97;17.83;;;;;;;;;;5078332;28;20457;-71
2022/11/22 10:29:09;;;;;;;25.70;17.87;;;;;;;;;;5080292;28;20814;-72
2022/11/22 10:32:01;;;;;;;24.70;16.70;;;;;;;;;;5078308;28;20463;-71
2022/11/22 10:35:01;;;;;;;27.10;18.60;;;;;;;;;;5075752;28;20609;-71
2022/11/22 10:38:02;;;;;;;28.87;18.10;;;;;;;;;;5078279;28;20803;-72
2022/11/22 10:40:56;;;;;;;27.57;17.07;;;;;;;;;;5072896;28;20563;-72
2022/11/22 10:43:48;;;;;;;27.43;18.33;;;;;;;;;;5081374;28;20480;-71
2022/11/22 10:46:46;;;;;;;30.57;18.40;;;;;;;;;;5078942;28;20437;-71
2022/11/22 10:49:50;;;;;;;22.90;17.03;;;;;;;;;;5079775;28;20978;-71
2022/11/22 10:52:46;;;;;;;25.40;17.03;;;;;;;;;;5075829;28;20492;-72
2022/11/22 10:55:43;;;;;;;27.80;18.10;;;;;;;;;;5081049;28;20463;-71
2022/11/22 10:58:35;;;;;;;28.10;18.80;;;;;;;;;;5080396;28;20457;-72
2022/11/22 11:01:30;;;;;;;25.37;18.57;;;;;;;;;;5083596;28;21022;-72
2022/11/22 11:04:31;;;;;;;25.57;18.27;;;;;;;;;;5083314;28;20818;-71
2022/11/22 11:07:25;;;;;;;25.37;17.83;;;;;;;;;;5082994;28;20831;-72
2022/11/22 11:10:22;;;;;;;26.50;18.33;;;;;;;;;;5081553;28;20437;-72
2022/11/22 11:13:24;;;;;;;25.87;16.63;;;;;;;;;;5081124;28;20496;-71
2022/11/22 11:16:17;;;;;;;25.10;18.30;;;;;;;;;;5077076;28;20464;-71
2022/11/22 11:19:12;;;;;;;25.53;18.53;;;;;;;;;;5081268;28;21219;-72
2022/11/22 11:22:04;;;;;;;26.53;18.17;;;;;;;;;;5084273;28;20469;-72
2022/11/22 11:24:55;;;;;;;25.43;18.43;;;;;;;;;;5081767;28;20453;-71
2022/11/22 11:27:45;;;;;;;26.27;18.13;;;;;;;;;;5081700;28;20453;-72
2022/11/22 11:30:38;;;;;;;26.43;18.53;;;;;;;;;;5081087;28;20476;-72
2022/11/22 11:33:30;;;;;;;26.83;18.60;;;;;;;;;;5082015;28;20481;-72
2022/11/22 11:36:22;;;;;;;30.33;19.57;;;;;;;;;;5083214;28;20460;-72
2022/11/22 11:39:20;;;;;;;29.70;18.73;;;;;;;;;;5083465;28;20946;-71
2022/11/22 11:42:24;;;;;;;28.00;18.37;;;;;;;;;;5079444;28;20481;-71
2022/11/22 11:45:27;;;;;;;26.83;18.70;;;;;;;;;;5080054;28;20969;-71
2022/11/22 11:48:26;;;;;;;28.10;18.50;;;;;;;;;;5079481;28;20464;-72
2022/11/22 11:51:21;;;;;;;24.60;16.70;;;;;;;;;;5082483;28;20472;-72
2022/11/22 11:54:11;;;;;;;26.17;17.80;;;;;;;;;;5083076;28;20426;-72
2022/11/22 11:57:03;;;;;;;28.10;17.77;;;;;;;;;;5074956;28;20548;-71
2022/11/22 11:59:53;;;;;;;28.50;18.23;;;;;;;;;;5079427;28;20450;-72
2022/11/22 12:02:52;;;;;;;24.17;18.20;;;;;;;;;;5077707;28;20530;-71
2022/11/22 12:05:56;;;;;;;26.07;19.03;;;;;;;;;;5078844;28;20452;-72
2022/11/22 12:08:46;;;;;;;27.27;18.43;;;;;;;;;;5080572;28;20449;-72
2022/11/22 12:11:43;;;;;;;27.30;20.07;;;;;;;;;;5077353;28;20471;-71
2022/11/22 12:14:49;;;;;;;25.70;18.37;;;;;;;;;;5078188;28;20449;-72
2022/11/22 12:18:00;;;;;;;27.10;19.20;;;;;;;;;;5081940;28;20462;-72
2022/11/22 12:21:05;;;;;;;24.63;18.40;;;;;;;;;;5076974;28;20497;-72
2022/11/22 12:23:59;;;;;;;26.93;18.50;;;;;;;;;;5076447;28;20472;-72
2022/11/22 12:27:10;;;;;;;27.53;19.90;;;;;;;;;;5066701;28;20461;-71
2022/11/22 12:30:00;;;;;;;26.57;19.27;;;;;;;;;;5073757;28;20453;-72
2022/11/22 12:32:53;;;;;;;26.77;18.50;;;;;;;;;;5079579;28;20481;-72
2022/11/22 12:35:47;;;;;;;23.60;18.27;;;;;;;;;;5080213;28;20457;-72
2022/11/22 12:38:44;;;;;;;27.60;19.40;;;;;;;;;;5075013;28;20450;-72
2022/11/22 12:41:36;;;;;;;24.70;18.40;;;;;;;;;;5078347;28;20489;-72
2022/11/22 12:44:51;;;;;;;25.50;18.10;;;;;;;;;;5077421;28;20446;-71
2022/11/22 12:47:46;;;;;;;25.40;17.53;;;;;;;;;;5079609;28;20445;-71
2022/11/22 12:50:38;;;;;;;25.53;17.73;;;;;;;;;;5070242;28;20462;-72
2022/11/22 12:53:30;;;;;;;24.97;17.00;;;;;;;;;;5073528;28;21270;-71
2022/11/22 12:56:27;;;;;;;27.30;18.33;;;;;;;;;;5082007;28;20450;-71
2022/11/22 12:59:31;;;;;;;26.07;19.73;;;;;;;;;;5080986;28;20544;-72
2022/11/22 13:02:27;;;;;;;25.10;18.57;;;;;;;;;;5082896;28;20508;-71
2022/11/22 13:05:22;;;;;;;26.63;18.17;;;;;;;;;;5089823;28;20687;-72
2022/11/22 13:08:18;;;;;;;28.07;18.07;;;;;;;;;;5094025;28;20454;-71
2022/11/22 13:11:12;;;;;;;25.23;18.57;;;;;;;;;;5082494;28;20485;-72
2022/11/22 13:14:07;;;;;;;28.43;18.40;;;;;;;;;;5071512;28;20457;-72
2022/11/22 13:16:55;;;;;;;29.60;20.50;;;;;;;;;;5083707;28;20456;-72
2022/11/22 13:19:49;;;;;;;26.80;19.53;;;;;;;;;;5080988;28;20465;-72
2022/11/22 13:22:49;;;;;;;26.20;17.50;;;;;;;;;;5078199;28;20473;-72
2022/11/22 13:25:55;;;;;;;26.83;17.37;;;;;;;;;;5077519;28;21059;-72
2022/11/22 13:28:48;;;;;;;26.30;17.80;;;;;;;;;;5077933;28;21088;-72
2022/11/22 13:31:51;;;;;;;28.17;19.00;;;;;;;;;;5070546;28;20503;-71
2022/11/22 13:34:43;;;;;;;26.53;18.50;;;;;;;;;;5077314;28;20464;-72
2022/11/22 13:37:33;;;;;;;26.27;19.37;;;;;;;;;;5075903;28;20516;-72
2022/11/22 13:40:26;;;;;;;25.97;18.57;;;;;;;;;;5066692;28;20458;-71
2022/11/22 13:43:33;;;;;;;26.50;18.30;;;;;;;;;;5070029;28;20971;-75
2022/11/22 13:46:39;;;;;;;28.27;19.00;;;;;;;;;;5075335;28;20465;-71
2022/11/22 13:49:38;;;;;;;27.63;18.50;;;;;;;;;;5066169;28;20545;-71
2022/11/22 13:52:53;;;;;;;25.57;18.40;;;;;;;;;;5065973;28;20608;-71
2022/11/22 13:55:42;;;;;;;28.23;19.50;;;;;;;;;;5075162;28;20464;-71
2022/11/22 13:58:54;;;;;;;24.87;18.10;;;;;;;;;;5066902;28;20447;-73
2022/11/22 14:01:57;;;;;;;23.37;17.70;;;;;;;;;;5070531;28;20548;-71
2022/11/22 14:04:59;;;;;;;26.13;19.40;;;;;;;;;;5076412;28;20498;-71
2022/11/22 14:07:54;;;;;;;25.07;18.90;;;;;;;;;;5072958;28;20462;-71
2022/11/22 14:10:59;;;;;;;27.60;19.10;;;;;;;;;;5074356;28;22716;-72
2022/11/22 14:13:53;;;;;;;26.40;18.73;;;;;;;;;;5077870;28;20543;-71
2022/11/22 14:16:49;;;;;;;29.73;19.90;;;;;;;;;;5075752;28;20546;-71
2022/11/22 14:19:44;;;;;;;26.63;17.77;;;;;;;;;;5077120;28;20444;-71
2022/11/22 14:22:44;;;;;;;25.60;18.97;;;;;;;;;;5074146;28;20610;-71
2022/11/22 14:25:41;;;;;;;25.23;18.27;;;;;;;;;;5078024;28;20456;-71
2022/11/22 14:28:43;;;;;;;27.30;18.20;;;;;;;;;;5082656;28;20472;-71
2022/11/22 14:31:46;;;;;;;28.40;19.80;;;;;;;;;;5083605;28;21118;-71
2022/11/22 14:34:56;;;;;;;25.97;18.03;;;;;;;;;;5082268;28;20960;-71
2022/11/22 14:37:47;;;;;;;28.50;18.93;;;;;;;;;;5077484;28;20454;-71
2022/11/22 14:40:36;;;;;;;27.33;17.80;;;;;;;;;;5081977;28;21139;-71
2022/11/22 14:43:34;;;;;;;27.17;18.70;;;;;;;;;;5081467;28;20473;-71
2022/11/22 14:46:27;;;;;;;27.83;19.23;;;;;;;;;;5083419;28;20453;-71
2022/11/22 14:49:41;;;;;;;26.77;19.43;;;;;;;;;;5082572;28;20439;-71
2022/11/22 14:52:38;;;;;;;30.47;20.23;;;;;;;;;;5079845;28;21349;-71
2022/11/22 14:55:46;;;;;;;;;;;;;;;;;;;;;
2022/11/22 14:58:47;;;;;;;24.07;17.17;;;;;;;;;;5079675;28;20460;-71
2022/11/22 15:01:59;;;;;;;26.60;18.53;;;;;;;;;;5078431;28;20470;-73
2022/11/22 15:04:50;;;;;;;26.10;18.90;;;;;;;;;;5081155;28;20453;-71
2022/11/22 15:08:16;;;;;;;26.20;18.70;;;;;;;;;;5081303;28;20450;-71
2022/11/22 15:11:46;;;;;;;30.17;19.10;;;;;;;;;;5072714;28;20843;-71
2022/11/22 15:14:50;;;;;;;30.27;19.30;;;;;;;;;;5081122;28;20456;-71
2022/11/22 15:17:41;;;;;;;28.40;19.63;;;;;;;;;;5078428;28;21054;-71
2022/11/22 15:20:54;;;;;;;27.50;19.10;;;;;;;;;;5079961;28;20465;-71
2022/11/22 15:24:02;;;;;;;29.07;20.30;;;;;;;;;;5081138;28;20504;-71
2022/11/22 15:27:28;;;;;;;28.10;19.47;;;;;;;;;;5078744;28;20465;-73
2022/11/22 15:30:43;;;;;;;28.53;19.40;;;;;;;;;;5081401;28;20968;-71
2022/11/22 15:33:53;;;;;;;27.60;19.40;;;;;;;;;;5081936;28;20449;-71
2022/11/22 15:37:07;;;;;;;28.63;20.57;;;;;;;;;;5081441;28;20454;-70
2022/11/22 15:40:16;;;;;;;29.20;19.93;;;;;;;;;;5077999;28;20452;-71
2022/11/22 15:43:28;;;;;;;28.87;19.70;;;;;;;;;;5075981;28;20485;-71
2022/11/22 15:46:39;;;;;;;28.30;19.00;;;;;;;;;;5073748;28;20498;-71
2022/11/22 15:49:50;;;;;;;30.87;19.83;;;;;;;;;;5067066;28;20500;-71
2022/11/22 15:53:08;;;;;;;25.10;18.50;;;;;;;;;;5071962;28;20485;-71
2022/11/22 15:56:20;;;;;;;26.77;18.57;;;;;;;;;;5075978;28;20573;-71
2022/11/22 15:59:39;;;;;;;30.93;20.60;;;;;;;;;;5073064;28;20464;-71
2022/11/22 16:02:31;;;;;;;30.73;19.90;;;;;;;;;;5065528;28;20480;-70
2022/11/22 16:05:29;;;;;;;30.13;20.00;;;;;;;;;;5076411;28;20461;-71
2022/11/22 16:08:49;;;;;;;27.20;18.00;;;;;;;;;;5080054;28;20453;-71
2022/11/22 16:11:41;;;;;;;31.40;19.40;;;;;;;;;;5075957;28;20485;-71
2022/11/22 16:14:40;;;;;;;27.73;19.60;;;;;;;;;;5079488;28;20450;-71
2022/11/22 16:17:38;;;;;;;28.33;19.60;;;;;;;;;;5071038;28;21294;-71
2022/11/22 16:20:34;;;;;;;28.37;18.60;;;;;;;;;;5071877;28;20458;-72
2022/11/22 16:23:28;;;;;;;26.60;19.00;;;;;;;;;;5075960;28;20573;-71
2022/11/22 16:26:23;;;;;;;26.80;18.60;;;;;;;;;;5077345;28;20458;-77
2022/11/22 16:29:27;;;;;;;26.17;17.70;;;;;;;;;;5077967;28;20454;-77
2022/11/22 16:32:18;;;;;;;25.87;19.23;;;;;;;;;;5078671;28;20858;-76
2022/11/22 16:35:14;;;;;;;27.80;18.77;;;;;;;;;;5080781;28;20949;-71
2022/11/22 16:38:17;;;;;;;27.57;18.67;;;;;;;;;;5075205;28;20994;-71
2022/11/22 16:41:15;;;;;;;28.83;18.87;;;;;;;;;;5071213;28;21030;-71
2022/11/22 16:44:11;;;;;;;29.60;18.70;;;;;;;;;;5077811;28;20535;-71
2022/11/22 16:47:09;;;;;;;24.40;17.93;;;;;;;;;;5078074;28;20460;-71
2022/11/22 16:49:58;;;;;;;28.57;19.20;;;;;;;;;;5065769;28;20453;-71
2022/11/22 16:52:54;;;;;;;28.17;19.83;;;;;;;;;;5076134;28;21042;-71
2022/11/22 16:55:49;;;;;;;27.30;18.83;;;;;;;;;;5075573;28;20453;-71
2022/11/22 16:58:37;;;;;;;27.17;19.03;;;;;;;;;;5081089;28;20459;-71
2022/11/22 17:01:32;;;;;;;32.40;19.43;;;;;;;;;;5078762;28;20585;-71
2022/11/22 17:04:26;;;;;;;27.63;19.93;;;;;;;;;;5075361;28;20473;-70
2022/11/22 17:07:15;;;;;;;27.30;18.97;;;;;;;;;;5077495;28;20496;-70
2022/11/22 17:10:07;;;;;;;29.30;19.03;;;;;;;;;;5073895;28;20610;-70
2022/11/22 17:12:58;;;;;;;27.20;18.60;;;;;;;;;;5075108;28;20476;-70
2022/11/22 17:15:53;;;;;;;25.90;19.10;;;;;;;;;;5065317;28;21155;-71